sensor_id;sensor_type;location;lat;lon;timestamp;P1;durP1;ratioP1;P2;durP2;ratioP2
12296;SDS011;6211;49.124;9.152;2022-10-31T00:01:10;10.57;;;5.35;;
12296;SDS011;6211;49.124;9.152;2022-10-31T00:03:37;6.10;;;4.43;;
12296;SDS011;6211;49.124;9.152;2022-10-31T00:06:04;7.70;;;4.60;;
12296;SDS011;6211;49.124;9.152;2022-10-31T00:08:31;8.40;;;4.85;;
12296;SDS011;6211;49.124;9.152;2022-10-31T00:10:58;11.82;;;5.40;;
12296;SDS011;6211;49.124;9.152;2022-10-31T00:13:25;6.40;;;4.40;;
12296;SDS011;6211;49.124;9.152;2022-10-31T00:15:54;6.65;;;4.78;;
12296;SDS011;6211;49.124;9.152;2022-10-31T00:18:21;8.25;;;4.85;;
12296;SDS011;6211;49.124;9.152;2022-10-31T00:20:48;11.80;;;5.03;;
12296;SDS011;6211;49.124;9.152;2022-10-31T00:23:15;17.33;;;4.53;;
12296;SDS011;6211;49.124;9.152;2022-10-31T00:25:42;5.05;;;3.58;;
12296;SDS011;6211;49.124;9.152;2022-10-31T00:28:09;13.77;;;4.30;;
12296;SDS011;6211;49.124;9.152;2022-10-31T00:30:38;9.82;;;4.55;;
12296;SDS011;6211;49.124;9.152;2022-10-31T00:33:06;11.13;;;5.88;;
12296;SDS011;6211;49.124;9.152;2022-10-31T00:35:33;9.55;;;5.00;;
12296;SDS011;6211;49.124;9.152;2022-10-31T00:38:00;10.25;;;4.60;;
12296;SDS011;6211;49.124;9.152;2022-10-31T00:40:27;9.93;;;5.25;;
12296;SDS011;6211;49.124;9.152;2022-10-31T00:42:54;20.30;;;4.88;;
12296;SDS011;6211;49.124;9.152;2022-10-31T00:45:22;8.30;;;4.45;;
12296;SDS011;6211;49.124;9.152;2022-10-31T00:47:49;10.05;;;4.25;;
12296;SDS011;6211;49.124;9.152;2022-10-31T00:50:17;8.93;;;4.05;;
12296;SDS011;6211;49.124;9.152;2022-10-31T00:52:44;11.70;;;4.18;;
12296;SDS011;6211;49.124;9.152;2022-10-31T00:55:11;5.78;;;4.63;;
12296;SDS011;6211;49.124;9.152;2022-10-31T00:57:38;7.00;;;4.13;;
12296;SDS011;6211;49.124;9.152;2022-10-31T01:00:06;10.13;;;4.45;;
12296;SDS011;6211;49.124;9.152;2022-10-31T01:02:33;11.75;;;4.38;;
12296;SDS011;6211;49.124;9.152;2022-10-31T01:05:00;9.75;;;3.92;;
12296;SDS011;6211;49.124;9.152;2022-10-31T01:07:29;9.73;;;4.65;;
12296;SDS011;6211;49.124;9.152;2022-10-31T01:09:56;3.80;;;3.50;;
12296;SDS011;6211;49.124;9.152;2022-10-31T01:12:23;7.40;;;4.47;;
12296;SDS011;6211;49.124;9.152;2022-10-31T01:14:50;4.60;;;4.00;;
12296;SDS011;6211;49.124;9.152;2022-10-31T01:17:17;5.18;;;3.58;;
12296;SDS011;6211;49.124;9.152;2022-10-31T01:19:44;4.35;;;3.33;;
12296;SDS011;6211;49.124;9.152;2022-10-31T01:22:11;6.38;;;4.53;;
12296;SDS011;6211;49.124;9.152;2022-10-31T01:24:40;3.88;;;3.45;;
12296;SDS011;6211;49.124;9.152;2022-10-31T01:27:07;3.72;;;3.40;;
12296;SDS011;6211;49.124;9.152;2022-10-31T01:29:34;4.43;;;3.80;;
12296;SDS011;6211;49.124;9.152;2022-10-31T01:32:01;3.97;;;3.63;;
12296;SDS011;6211;49.124;9.152;2022-10-31T01:34:28;5.15;;;3.78;;
12296;SDS011;6211;49.124;9.152;2022-10-31T01:36:55;10.45;;;4.95;;
12296;SDS011;6211;49.124;9.152;2022-10-31T01:39:23;4.20;;;3.70;;
12296;SDS011;6211;49.124;9.152;2022-10-31T01:41:52;4.50;;;3.92;;
12296;SDS011;6211;49.124;9.152;2022-10-31T01:47:06;22.83;;;4.78;;
12296;SDS011;6211;49.124;9.152;2022-10-31T01:49:36;4.97;;;4.20;;
12296;SDS011;6211;49.124;9.152;2022-10-31T01:52:06;6.03;;;3.97;;
12296;SDS011;6211;49.124;9.152;2022-10-31T01:54:37;10.35;;;3.72;;
12296;SDS011;6211;49.124;9.152;2022-10-31T01:57:08;5.85;;;3.58;;
12296;SDS011;6211;49.124;9.152;2022-10-31T01:59:38;6.18;;;3.90;;
12296;SDS011;6211;49.124;9.152;2022-10-31T02:02:07;13.77;;;4.72;;
12296;SDS011;6211;49.124;9.152;2022-10-31T02:04:34;5.45;;;4.10;;
12296;SDS011;6211;49.124;9.152;2022-10-31T02:07:02;7.07;;;5.00;;
12296;SDS011;6211;49.124;9.152;2022-10-31T02:09:30;6.13;;;3.70;;
12296;SDS011;6211;49.124;9.152;2022-10-31T02:11:57;8.40;;;5.25;;
12296;SDS011;6211;49.124;9.152;2022-10-31T02:14:27;6.18;;;4.22;;
12296;SDS011;6211;49.124;9.152;2022-10-31T02:16:55;5.93;;;4.00;;
12296;SDS011;6211;49.124;9.152;2022-10-31T02:19:26;4.13;;;3.55;;
12296;SDS011;6211;49.124;9.152;2022-10-31T02:21:58;4.45;;;3.10;;
12296;SDS011;6211;49.124;9.152;2022-10-31T02:24:34;4.22;;;3.50;;
12296;SDS011;6211;49.124;9.152;2022-10-31T02:27:08;4.05;;;3.30;;
12296;SDS011;6211;49.124;9.152;2022-10-31T02:29:45;3.90;;;3.50;;
12296;SDS011;6211;49.124;9.152;2022-10-31T02:32:20;4.30;;;3.58;;
12296;SDS011;6211;49.124;9.152;2022-10-31T02:34:53;8.40;;;4.25;;
12296;SDS011;6211;49.124;9.152;2022-10-31T02:37:25;3.95;;;3.58;;
12296;SDS011;6211;49.124;9.152;2022-10-31T02:39:53;6.15;;;4.18;;
12296;SDS011;6211;49.124;9.152;2022-10-31T02:42:24;6.28;;;4.78;;
12296;SDS011;6211;49.124;9.152;2022-10-31T02:44:56;10.68;;;6.18;;
12296;SDS011;6211;49.124;9.152;2022-10-31T02:47:26;7.57;;;5.35;;
12296;SDS011;6211;49.124;9.152;2022-10-31T02:49:54;5.55;;;4.80;;
12296;SDS011;6211;49.124;9.152;2022-10-31T02:52:25;5.32;;;4.82;;
12296;SDS011;6211;49.124;9.152;2022-10-31T02:54:52;4.82;;;4.35;;
12296;SDS011;6211;49.124;9.152;2022-10-31T02:57:20;6.10;;;4.32;;
12296;SDS011;6211;49.124;9.152;2022-10-31T02:59:51;4.55;;;3.75;;
12296;SDS011;6211;49.124;9.152;2022-10-31T03:05:11;5.05;;;4.15;;
12296;SDS011;6211;49.124;9.152;2022-10-31T03:07:43;5.25;;;3.92;;
12296;SDS011;6211;49.124;9.152;2022-10-31T03:10:14;5.07;;;4.25;;
12296;SDS011;6211;49.124;9.152;2022-10-31T03:12:44;7.32;;;4.28;;
12296;SDS011;6211;49.124;9.152;2022-10-31T03:15:14;6.72;;;4.55;;
12296;SDS011;6211;49.124;9.152;2022-10-31T03:17:47;8.27;;;4.78;;
12296;SDS011;6211;49.124;9.152;2022-10-31T03:20:19;6.53;;;4.90;;
12296;SDS011;6211;49.124;9.152;2022-10-31T03:22:47;7.80;;;4.85;;
12296;SDS011;6211;49.124;9.152;2022-10-31T03:25:14;5.93;;;4.25;;
12296;SDS011;6211;49.124;9.152;2022-10-31T03:27:42;7.35;;;5.43;;
12296;SDS011;6211;49.124;9.152;2022-10-31T03:30:10;6.10;;;4.90;;
12296;SDS011;6211;49.124;9.152;2022-10-31T03:32:38;6.10;;;4.97;;
12296;SDS011;6211;49.124;9.152;2022-10-31T03:35:07;6.47;;;4.65;;
12296;SDS011;6211;49.124;9.152;2022-10-31T03:37:36;7.47;;;5.55;;
12296;SDS011;6211;49.124;9.152;2022-10-31T03:40:05;6.78;;;5.72;;
12296;SDS011;6211;49.124;9.152;2022-10-31T03:42:34;7.30;;;5.82;;
12296;SDS011;6211;49.124;9.152;2022-10-31T03:45:02;8.48;;;6.07;;
12296;SDS011;6211;49.124;9.152;2022-10-31T03:47:30;7.88;;;5.70;;
12296;SDS011;6211;49.124;9.152;2022-10-31T03:49:58;8.25;;;5.75;;
12296;SDS011;6211;49.124;9.152;2022-10-31T03:52:26;10.02;;;5.97;;
12296;SDS011;6211;49.124;9.152;2022-10-31T03:54:56;7.97;;;6.05;;
12296;SDS011;6211;49.124;9.152;2022-10-31T03:57:24;8.43;;;5.95;;
12296;SDS011;6211;49.124;9.152;2022-10-31T03:59:53;9.27;;;5.78;;
12296;SDS011;6211;49.124;9.152;2022-10-31T04:02:22;8.55;;;6.13;;
12296;SDS011;6211;49.124;9.152;2022-10-31T04:04:52;10.63;;;7.07;;
12296;SDS011;6211;49.124;9.152;2022-10-31T04:07:19;10.10;;;6.95;;
12296;SDS011;6211;49.124;9.152;2022-10-31T04:09:48;12.65;;;6.70;;
12296;SDS011;6211;49.124;9.152;2022-10-31T04:12:17;12.70;;;6.07;;
12296;SDS011;6211;49.124;9.152;2022-10-31T04:14:46;9.57;;;6.80;;
12296;SDS011;6211;49.124;9.152;2022-10-31T04:17:16;13.82;;;6.38;;
12296;SDS011;6211;49.124;9.152;2022-10-31T04:19:44;7.80;;;5.25;;
12296;SDS011;6211;49.124;9.152;2022-10-31T04:22:11;11.63;;;6.35;;
12296;SDS011;6211;49.124;9.152;2022-10-31T04:24:39;11.13;;;5.28;;
12296;SDS011;6211;49.124;9.152;2022-10-31T04:27:06;10.85;;;5.63;;
12296;SDS011;6211;49.124;9.152;2022-10-31T04:29:35;11.50;;;6.88;;
12296;SDS011;6211;49.124;9.152;2022-10-31T04:32:02;13.18;;;6.22;;
12296;SDS011;6211;49.124;9.152;2022-10-31T04:34:29;8.68;;;5.47;;
12296;SDS011;6211;49.124;9.152;2022-10-31T04:36:56;8.90;;;5.80;;
12296;SDS011;6211;49.124;9.152;2022-10-31T04:39:23;9.23;;;5.43;;
12296;SDS011;6211;49.124;9.152;2022-10-31T04:41:50;11.43;;;4.90;;
12296;SDS011;6211;49.124;9.152;2022-10-31T04:44:17;6.70;;;4.43;;
12296;SDS011;6211;49.124;9.152;2022-10-31T04:46:46;4.20;;;3.72;;
12296;SDS011;6211;49.124;9.152;2022-10-31T04:49:13;5.20;;;4.10;;
12296;SDS011;6211;49.124;9.152;2022-10-31T04:51:40;5.75;;;3.97;;
12296;SDS011;6211;49.124;9.152;2022-10-31T04:54:07;8.07;;;4.22;;
12296;SDS011;6211;49.124;9.152;2022-10-31T04:56:34;10.65;;;4.18;;
12296;SDS011;6211;49.124;9.152;2022-10-31T04:59:01;4.25;;;3.35;;
12296;SDS011;6211;49.124;9.152;2022-10-31T05:01:28;4.18;;;3.20;;
12296;SDS011;6211;49.124;9.152;2022-10-31T05:03:57;5.15;;;3.47;;
12296;SDS011;6211;49.124;9.152;2022-10-31T05:06:24;4.55;;;3.65;;
12296;SDS011;6211;49.124;9.152;2022-10-31T05:08:51;4.72;;;3.28;;
12296;SDS011;6211;49.124;9.152;2022-10-31T05:11:18;5.93;;;4.05;;
12296;SDS011;6211;49.124;9.152;2022-10-31T05:13:45;5.03;;;3.50;;
12296;SDS011;6211;49.124;9.152;2022-10-31T05:16:13;3.75;;;3.13;;
12296;SDS011;6211;49.124;9.152;2022-10-31T05:18:40;5.05;;;4.30;;
12296;SDS011;6211;49.124;9.152;2022-10-31T05:21:08;3.78;;;3.15;;
12296;SDS011;6211;49.124;9.152;2022-10-31T05:23:35;4.00;;;3.17;;
12296;SDS011;6211;49.124;9.152;2022-10-31T05:26:02;7.47;;;3.30;;
12296;SDS011;6211;49.124;9.152;2022-10-31T05:28:30;4.22;;;2.97;;
12296;SDS011;6211;49.124;9.152;2022-10-31T05:30:57;4.53;;;3.47;;
12296;SDS011;6211;49.124;9.152;2022-10-31T05:33:24;3.40;;;3.03;;
12296;SDS011;6211;49.124;9.152;2022-10-31T05:35:51;4.97;;;3.25;;
12296;SDS011;6211;49.124;9.152;2022-10-31T05:38:19;3.58;;;3.13;;
12296;SDS011;6211;49.124;9.152;2022-10-31T05:40:46;3.83;;;2.92;;
12296;SDS011;6211;49.124;9.152;2022-10-31T05:43:13;5.72;;;2.90;;
12296;SDS011;6211;49.124;9.152;2022-10-31T05:45:41;7.68;;;3.65;;
12296;SDS011;6211;49.124;9.152;2022-10-31T05:48:08;6.82;;;3.25;;
12296;SDS011;6211;49.124;9.152;2022-10-31T05:50:35;6.15;;;3.30;;
12296;SDS011;6211;49.124;9.152;2022-10-31T05:53:02;10.77;;;4.10;;
12296;SDS011;6211;49.124;9.152;2022-10-31T05:55:31;4.03;;;3.53;;
12296;SDS011;6211;49.124;9.152;2022-10-31T05:57:58;8.07;;;3.67;;
12296;SDS011;6211;49.124;9.152;2022-10-31T06:00:26;4.25;;;3.17;;
12296;SDS011;6211;49.124;9.152;2022-10-31T06:02:57;6.03;;;3.20;;
12296;SDS011;6211;49.124;9.152;2022-10-31T06:05:24;5.07;;;3.30;;
12296;SDS011;6211;49.124;9.152;2022-10-31T06:07:51;3.63;;;2.88;;
12296;SDS011;6211;49.124;9.152;2022-10-31T06:10:19;3.80;;;2.80;;
12296;SDS011;6211;49.124;9.152;2022-10-31T06:12:47;5.30;;;3.05;;
12296;SDS011;6211;49.124;9.152;2022-10-31T06:15:15;6.70;;;2.95;;
12296;SDS011;6211;49.124;9.152;2022-10-31T06:17:42;3.22;;;2.92;;
12296;SDS011;6211;49.124;9.152;2022-10-31T06:20:09;4.05;;;3.17;;
12296;SDS011;6211;49.124;9.152;2022-10-31T06:22:37;5.20;;;3.35;;
12296;SDS011;6211;49.124;9.152;2022-10-31T06:25:04;4.43;;;3.50;;
12296;SDS011;6211;49.124;9.152;2022-10-31T06:27:31;3.67;;;2.80;;
12296;SDS011;6211;49.124;9.152;2022-10-31T06:29:59;3.53;;;2.80;;
12296;SDS011;6211;49.124;9.152;2022-10-31T06:32:27;5.93;;;3.10;;
12296;SDS011;6211;49.124;9.152;2022-10-31T06:34:54;3.25;;;2.63;;
12296;SDS011;6211;49.124;9.152;2022-10-31T06:37:21;3.67;;;3.20;;
12296;SDS011;6211;49.124;9.152;2022-10-31T06:39:48;3.75;;;3.03;;
12296;SDS011;6211;49.124;9.152;2022-10-31T06:42:15;7.05;;;3.05;;
12296;SDS011;6211;49.124;9.152;2022-10-31T06:44:42;4.25;;;3.10;;
12296;SDS011;6211;49.124;9.152;2022-10-31T06:47:11;4.20;;;2.75;;
12296;SDS011;6211;49.124;9.152;2022-10-31T06:49:38;3.03;;;2.72;;
12296;SDS011;6211;49.124;9.152;2022-10-31T06:52:05;4.05;;;3.28;;
12296;SDS011;6211;49.124;9.152;2022-10-31T06:54:32;3.33;;;3.03;;
12296;SDS011;6211;49.124;9.152;2022-10-31T06:56:59;3.50;;;2.97;;
12296;SDS011;6211;49.124;9.152;2022-10-31T06:59:27;4.32;;;3.42;;
12296;SDS011;6211;49.124;9.152;2022-10-31T07:01:54;4.25;;;3.72;;
12296;SDS011;6211;49.124;9.152;2022-10-31T07:04:23;3.90;;;3.22;;
12296;SDS011;6211;49.124;9.152;2022-10-31T07:06:50;4.85;;;3.33;;
12296;SDS011;6211;49.124;9.152;2022-10-31T07:09:17;5.75;;;3.25;;
12296;SDS011;6211;49.124;9.152;2022-10-31T07:11:45;10.93;;;4.53;;
12296;SDS011;6211;49.124;9.152;2022-10-31T07:14:12;7.53;;;4.20;;
12296;SDS011;6211;49.124;9.152;2022-10-31T07:16:39;5.63;;;3.92;;
12296;SDS011;6211;49.124;9.152;2022-10-31T07:19:06;5.80;;;4.13;;
12296;SDS011;6211;49.124;9.152;2022-10-31T07:21:34;4.68;;;3.72;;
12296;SDS011;6211;49.124;9.152;2022-10-31T07:24:02;5.00;;;3.67;;
12296;SDS011;6211;49.124;9.152;2022-10-31T07:26:29;4.93;;;3.28;;
12296;SDS011;6211;49.124;9.152;2022-10-31T07:28:56;6.25;;;3.65;;
12296;SDS011;6211;49.124;9.152;2022-10-31T07:31:24;3.63;;;3.33;;
12296;SDS011;6211;49.124;9.152;2022-10-31T07:33:51;4.22;;;3.35;;
12296;SDS011;6211;49.124;9.152;2022-10-31T07:36:18;6.20;;;3.58;;
12296;SDS011;6211;49.124;9.152;2022-10-31T07:38:46;3.38;;;3.08;;
12296;SDS011;6211;49.124;9.152;2022-10-31T07:41:14;4.53;;;3.15;;
12296;SDS011;6211;49.124;9.152;2022-10-31T07:43:41;5.85;;;3.70;;
12296;SDS011;6211;49.124;9.152;2022-10-31T07:46:08;4.57;;;3.72;;
12296;SDS011;6211;49.124;9.152;2022-10-31T07:48:36;9.23;;;3.38;;
12296;SDS011;6211;49.124;9.152;2022-10-31T07:51:03;9.02;;;4.13;;
12296;SDS011;6211;49.124;9.152;2022-10-31T07:53:32;8.63;;;3.42;;
12296;SDS011;6211;49.124;9.152;2022-10-31T07:56:00;8.50;;;3.10;;
12296;SDS011;6211;49.124;9.152;2022-10-31T07:58:27;21.05;;;4.00;;
12296;SDS011;6211;49.124;9.152;2022-10-31T08:00:54;6.20;;;3.40;;
12296;SDS011;6211;49.124;9.152;2022-10-31T08:03:21;9.68;;;3.42;;
12296;SDS011;6211;49.124;9.152;2022-10-31T08:05:49;14.13;;;4.10;;
12296;SDS011;6211;49.124;9.152;2022-10-31T08:08:16;7.22;;;3.38;;
12296;SDS011;6211;49.124;9.152;2022-10-31T08:10:43;5.32;;;3.70;;
12296;SDS011;6211;49.124;9.152;2022-10-31T08:13:12;6.57;;;3.20;;
12296;SDS011;6211;49.124;9.152;2022-10-31T08:15:39;5.07;;;3.60;;
12296;SDS011;6211;49.124;9.152;2022-10-31T08:18:10;3.55;;;2.90;;
12296;SDS011;6211;49.124;9.152;2022-10-31T08:20:38;7.72;;;3.20;;
12296;SDS011;6211;49.124;9.152;2022-10-31T08:23:05;6.03;;;3.20;;
12296;SDS011;6211;49.124;9.152;2022-10-31T08:25:33;5.72;;;3.25;;
12296;SDS011;6211;49.124;9.152;2022-10-31T08:28:00;9.65;;;3.33;;
12296;SDS011;6211;49.124;9.152;2022-10-31T08:30:30;5.60;;;3.28;;
12296;SDS011;6211;49.124;9.152;2022-10-31T08:32:58;16.45;;;3.97;;
12296;SDS011;6211;49.124;9.152;2022-10-31T08:35:26;4.45;;;2.65;;
12296;SDS011;6211;49.124;9.152;2022-10-31T08:37:53;6.25;;;3.45;;
12296;SDS011;6211;49.124;9.152;2022-10-31T08:40:20;4.28;;;3.40;;
12296;SDS011;6211;49.124;9.152;2022-10-31T08:42:47;4.55;;;3.38;;
12296;SDS011;6211;49.124;9.152;2022-10-31T08:45:14;4.70;;;3.83;;
12296;SDS011;6211;49.124;9.152;2022-10-31T08:47:43;4.38;;;2.95;;
12296;SDS011;6211;49.124;9.152;2022-10-31T08:50:10;10.82;;;2.90;;
12296;SDS011;6211;49.124;9.152;2022-10-31T08:52:37;3.67;;;3.35;;
12296;SDS011;6211;49.124;9.152;2022-10-31T08:55:05;10.25;;;3.45;;
12296;SDS011;6211;49.124;9.152;2022-10-31T08:57:32;2.95;;;2.38;;
12296;SDS011;6211;49.124;9.152;2022-10-31T09:00:00;11.43;;;3.28;;
12296;SDS011;6211;49.124;9.152;2022-10-31T09:02:27;4.95;;;3.08;;
12296;SDS011;6211;49.124;9.152;2022-10-31T09:04:55;4.95;;;3.58;;
12296;SDS011;6211;49.124;9.152;2022-10-31T09:07:23;6.65;;;3.50;;
12296;SDS011;6211;49.124;9.152;2022-10-31T09:09:50;4.32;;;3.25;;
12296;SDS011;6211;49.124;9.152;2022-10-31T09:12:17;3.42;;;2.92;;
12296;SDS011;6211;49.124;9.152;2022-10-31T09:14:44;4.18;;;3.17;;
12296;SDS011;6211;49.124;9.152;2022-10-31T09:17:11;3.55;;;3.25;;
12296;SDS011;6211;49.124;9.152;2022-10-31T09:19:38;5.03;;;3.03;;
12296;SDS011;6211;49.124;9.152;2022-10-31T09:22:07;3.50;;;3.20;;
12296;SDS011;6211;49.124;9.152;2022-10-31T09:24:34;3.92;;;2.85;;
12296;SDS011;6211;49.124;9.152;2022-10-31T09:27:01;3.67;;;2.90;;
12296;SDS011;6211;49.124;9.152;2022-10-31T09:29:28;3.35;;;2.90;;
12296;SDS011;6211;49.124;9.152;2022-10-31T09:31:55;3.92;;;2.90;;
12296;SDS011;6211;49.124;9.152;2022-10-31T09:34:23;4.00;;;3.05;;
12296;SDS011;6211;49.124;9.152;2022-10-31T09:36:50;4.15;;;3.40;;
12296;SDS011;6211;49.124;9.152;2022-10-31T09:39:18;3.20;;;2.85;;
12296;SDS011;6211;49.124;9.152;2022-10-31T09:41:50;4.72;;;3.10;;
12296;SDS011;6211;49.124;9.152;2022-10-31T09:44:22;4.38;;;3.38;;
12296;SDS011;6211;49.124;9.152;2022-10-31T09:46:55;3.53;;;3.10;;
12296;SDS011;6211;49.124;9.152;2022-10-31T09:49:27;4.20;;;3.25;;
12296;SDS011;6211;49.124;9.152;2022-10-31T09:51:57;3.67;;;3.28;;
12296;SDS011;6211;49.124;9.152;2022-10-31T09:54:32;3.67;;;3.10;;
12296;SDS011;6211;49.124;9.152;2022-10-31T09:57:00;5.43;;;3.28;;
12296;SDS011;6211;49.124;9.152;2022-10-31T09:59:30;4.95;;;3.20;;
12296;SDS011;6211;49.124;9.152;2022-10-31T10:01:58;7.15;;;3.22;;
12296;SDS011;6211;49.124;9.152;2022-10-31T10:04:34;5.72;;;3.33;;
12296;SDS011;6211;49.124;9.152;2022-10-31T10:07:06;5.28;;;3.85;;
12296;SDS011;6211;49.124;9.152;2022-10-31T10:09:37;5.38;;;3.90;;
12296;SDS011;6211;49.124;9.152;2022-10-31T10:12:07;9.80;;;6.57;;
12296;SDS011;6211;49.124;9.152;2022-10-31T10:14:40;9.20;;;5.65;;
12296;SDS011;6211;49.124;9.152;2022-10-31T10:17:13;5.60;;;4.85;;
12296;SDS011;6211;49.124;9.152;2022-10-31T10:19:50;4.93;;;3.80;;
12296;SDS011;6211;49.124;9.152;2022-10-31T10:22:22;5.30;;;3.90;;
12296;SDS011;6211;49.124;9.152;2022-10-31T10:24:56;5.65;;;3.38;;
12296;SDS011;6211;49.124;9.152;2022-10-31T10:27:27;4.15;;;3.75;;
12296;SDS011;6211;49.124;9.152;2022-10-31T10:29:58;4.82;;;3.92;;
12296;SDS011;6211;49.124;9.152;2022-10-31T10:32:28;4.78;;;3.63;;
12296;SDS011;6211;49.124;9.152;2022-10-31T10:34:57;3.60;;;3.30;;
12296;SDS011;6211;49.124;9.152;2022-10-31T10:37:27;4.22;;;3.00;;
12296;SDS011;6211;49.124;9.152;2022-10-31T10:39:59;4.07;;;2.97;;
12296;SDS011;6211;49.124;9.152;2022-10-31T10:42:28;3.33;;;3.03;;
12296;SDS011;6211;49.124;9.152;2022-10-31T10:45:14;4.18;;;3.75;;
12296;SDS011;6211;49.124;9.152;2022-10-31T10:48:01;5.10;;;3.63;;
12296;SDS011;6211;49.124;9.152;2022-10-31T10:50:31;3.75;;;3.28;;
12296;SDS011;6211;49.124;9.152;2022-10-31T10:53:01;3.85;;;3.28;;
12296;SDS011;6211;49.124;9.152;2022-10-31T10:55:35;3.63;;;3.25;;
12296;SDS011;6211;49.124;9.152;2022-10-31T10:58:03;5.75;;;3.90;;
12296;SDS011;6211;49.124;9.152;2022-10-31T11:00:34;5.60;;;3.65;;
12296;SDS011;6211;49.124;9.152;2022-10-31T11:03:01;6.65;;;3.60;;
12296;SDS011;6211;49.124;9.152;2022-10-31T11:05:33;6.57;;;3.53;;
12296;SDS011;6211;49.124;9.152;2022-10-31T11:08:00;4.65;;;2.97;;
12296;SDS011;6211;49.124;9.152;2022-10-31T11:10:27;6.38;;;3.25;;
12296;SDS011;6211;49.124;9.152;2022-10-31T11:13:01;5.60;;;3.58;;
12296;SDS011;6211;49.124;9.152;2022-10-31T11:15:30;5.70;;;3.25;;
12296;SDS011;6211;49.124;9.152;2022-10-31T11:17:58;4.00;;;3.60;;
12296;SDS011;6211;49.124;9.152;2022-10-31T11:20:28;5.97;;;4.07;;
12296;SDS011;6211;49.124;9.152;2022-10-31T11:23:15;5.65;;;3.40;;
12296;SDS011;6211;49.124;9.152;2022-10-31T11:25:52;5.93;;;4.35;;
12296;SDS011;6211;49.124;9.152;2022-10-31T11:28:22;7.28;;;4.20;;
12296;SDS011;6211;49.124;9.152;2022-10-31T11:30:50;6.18;;;4.10;;
12296;SDS011;6211;49.124;9.152;2022-10-31T11:33:19;5.82;;;4.95;;
12296;SDS011;6211;49.124;9.152;2022-10-31T11:35:48;5.85;;;4.70;;
12296;SDS011;6211;49.124;9.152;2022-10-31T11:38:16;5.90;;;5.13;;
12296;SDS011;6211;49.124;9.152;2022-10-31T11:40:51;7.75;;;4.93;;
12296;SDS011;6211;49.124;9.152;2022-10-31T11:43:18;6.05;;;4.85;;
12296;SDS011;6211;49.124;9.152;2022-10-31T11:45:47;8.15;;;5.63;;
12296;SDS011;6211;49.124;9.152;2022-10-31T11:48:15;7.20;;;5.45;;
12296;SDS011;6211;49.124;9.152;2022-10-31T11:50:48;9.70;;;5.18;;
12296;SDS011;6211;49.124;9.152;2022-10-31T11:53:16;6.82;;;5.13;;
12296;SDS011;6211;49.124;9.152;2022-10-31T11:55:44;7.28;;;5.40;;
12296;SDS011;6211;49.124;9.152;2022-10-31T11:58:21;6.57;;;5.22;;
12296;SDS011;6211;49.124;9.152;2022-10-31T12:00:51;7.35;;;5.15;;
12296;SDS011;6211;49.124;9.152;2022-10-31T12:03:26;6.55;;;4.78;;
12296;SDS011;6211;49.124;9.152;2022-10-31T12:05:55;8.23;;;5.05;;
12296;SDS011;6211;49.124;9.152;2022-10-31T12:08:23;9.20;;;5.43;;
12296;SDS011;6211;49.124;9.152;2022-10-31T12:10:54;7.43;;;5.15;;
12296;SDS011;6211;49.124;9.152;2022-10-31T12:13:30;8.82;;;5.28;;
12296;SDS011;6211;49.124;9.152;2022-10-31T12:16:00;6.13;;;4.40;;
12296;SDS011;6211;49.124;9.152;2022-10-31T12:18:41;7.45;;;4.63;;
12296;SDS011;6211;49.124;9.152;2022-10-31T12:21:15;7.47;;;4.90;;
12296;SDS011;6211;49.124;9.152;2022-10-31T12:23:47;7.63;;;4.95;;
12296;SDS011;6211;49.124;9.152;2022-10-31T12:26:19;6.45;;;4.88;;
12296;SDS011;6211;49.124;9.152;2022-10-31T12:28:52;7.50;;;4.20;;
12296;SDS011;6211;49.124;9.152;2022-10-31T12:31:26;7.32;;;4.97;;
12296;SDS011;6211;49.124;9.152;2022-10-31T12:33:58;8.93;;;5.18;;
12296;SDS011;6211;49.124;9.152;2022-10-31T12:36:34;7.35;;;4.70;;
12296;SDS011;6211;49.124;9.152;2022-10-31T12:39:13;8.25;;;5.18;;
12296;SDS011;6211;49.124;9.152;2022-10-31T12:41:45;6.05;;;4.80;;
12296;SDS011;6211;49.124;9.152;2022-10-31T12:44:21;7.25;;;5.10;;
12296;SDS011;6211;49.124;9.152;2022-10-31T12:46:55;8.15;;;5.13;;
12296;SDS011;6211;49.124;9.152;2022-10-31T12:49:27;7.93;;;4.72;;
12296;SDS011;6211;49.124;9.152;2022-10-31T12:52:01;5.22;;;4.43;;
12296;SDS011;6211;49.124;9.152;2022-10-31T12:54:36;6.80;;;4.38;;
12296;SDS011;6211;49.124;9.152;2022-10-31T12:57:09;8.35;;;4.63;;
12296;SDS011;6211;49.124;9.152;2022-10-31T12:59:40;9.63;;;4.82;;
12296;SDS011;6211;49.124;9.152;2022-10-31T13:02:13;8.18;;;4.90;;
12296;SDS011;6211;49.124;9.152;2022-10-31T13:04:43;7.63;;;5.00;;
12296;SDS011;6211;49.124;9.152;2022-10-31T13:07:12;6.85;;;4.72;;
12296;SDS011;6211;49.124;9.152;2022-10-31T13:09:41;7.28;;;4.85;;
12296;SDS011;6211;49.124;9.152;2022-10-31T13:12:10;6.57;;;5.05;;
12296;SDS011;6211;49.124;9.152;2022-10-31T13:14:39;7.47;;;5.18;;
12296;SDS011;6211;49.124;9.152;2022-10-31T13:17:08;6.40;;;4.25;;
12296;SDS011;6211;49.124;9.152;2022-10-31T13:19:42;7.80;;;4.88;;
12296;SDS011;6211;49.124;9.152;2022-10-31T13:22:17;7.55;;;4.45;;
12296;SDS011;6211;49.124;9.152;2022-10-31T13:24:46;5.70;;;4.78;;
12296;SDS011;6211;49.124;9.152;2022-10-31T13:27:17;6.68;;;4.80;;
12296;SDS011;6211;49.124;9.152;2022-10-31T13:29:50;10.43;;;5.22;;
12296;SDS011;6211;49.124;9.152;2022-10-31T13:32:21;7.40;;;5.28;;
12296;SDS011;6211;49.124;9.152;2022-10-31T13:34:50;9.25;;;5.13;;
12296;SDS011;6211;49.124;9.152;2022-10-31T13:37:20;6.93;;;4.82;;
12296;SDS011;6211;49.124;9.152;2022-10-31T13:39:53;10.20;;;5.43;;
12296;SDS011;6211;49.124;9.152;2022-10-31T13:42:29;8.15;;;5.20;;
12296;SDS011;6211;49.124;9.152;2022-10-31T13:45:06;6.40;;;4.20;;
12296;SDS011;6211;49.124;9.152;2022-10-31T13:47:33;7.43;;;4.60;;
12296;SDS011;6211;49.124;9.152;2022-10-31T13:50:14;8.45;;;4.47;;
12296;SDS011;6211;49.124;9.152;2022-10-31T13:52:45;7.40;;;5.15;;
12296;SDS011;6211;49.124;9.152;2022-10-31T13:57:54;11.55;;;6.03;;
12296;SDS011;6211;49.124;9.152;2022-10-31T14:00:23;8.90;;;5.07;;
12296;SDS011;6211;49.124;9.152;2022-10-31T14:02:51;8.50;;;5.00;;
12296;SDS011;6211;49.124;9.152;2022-10-31T14:05:22;15.40;;;5.18;;
12296;SDS011;6211;49.124;9.152;2022-10-31T14:07:51;7.45;;;5.18;;
12296;SDS011;6211;49.124;9.152;2022-10-31T14:10:20;7.68;;;4.88;;
12296;SDS011;6211;49.124;9.152;2022-10-31T14:12:48;7.28;;;4.43;;
12296;SDS011;6211;49.124;9.152;2022-10-31T14:15:16;7.55;;;4.22;;
12296;SDS011;6211;49.124;9.152;2022-10-31T14:17:45;5.88;;;4.40;;
12296;SDS011;6211;49.124;9.152;2022-10-31T14:20:22;8.85;;;4.68;;
12296;SDS011;6211;49.124;9.152;2022-10-31T14:22:51;11.73;;;4.60;;
12296;SDS011;6211;49.124;9.152;2022-10-31T14:25:24;10.15;;;5.57;;
12296;SDS011;6211;49.124;9.152;2022-10-31T14:27:52;11.45;;;5.57;;
12296;SDS011;6211;49.124;9.152;2022-10-31T14:30:20;6.90;;;5.07;;
12296;SDS011;6211;49.124;9.152;2022-10-31T14:32:49;6.28;;;4.43;;
12296;SDS011;6211;49.124;9.152;2022-10-31T14:35:17;5.50;;;4.85;;
12296;SDS011;6211;49.124;9.152;2022-10-31T14:37:56;6.68;;;4.47;;
12296;SDS011;6211;49.124;9.152;2022-10-31T14:40:27;7.53;;;4.55;;
12296;SDS011;6211;49.124;9.152;2022-10-31T14:45:46;9.52;;;5.22;;
12296;SDS011;6211;49.124;9.152;2022-10-31T14:48:24;10.00;;;4.95;;
12296;SDS011;6211;49.124;9.152;2022-10-31T14:50:56;7.50;;;4.75;;
12296;SDS011;6211;49.124;9.152;2022-10-31T14:53:26;7.35;;;4.88;;
12296;SDS011;6211;49.124;9.152;2022-10-31T14:55:55;8.35;;;4.57;;
12296;SDS011;6211;49.124;9.152;2022-10-31T14:58:24;8.15;;;4.65;;
12296;SDS011;6211;49.124;9.152;2022-10-31T15:00:54;6.40;;;4.63;;
12296;SDS011;6211;49.124;9.152;2022-10-31T15:03:24;10.43;;;5.18;;
12296;SDS011;6211;49.124;9.152;2022-10-31T15:05:52;7.90;;;4.93;;
12296;SDS011;6211;49.124;9.152;2022-10-31T15:08:29;5.85;;;4.47;;
12296;SDS011;6211;49.124;9.152;2022-10-31T15:10:57;6.70;;;4.60;;
12296;SDS011;6211;49.124;9.152;2022-10-31T15:13:24;9.55;;;5.00;;
12296;SDS011;6211;49.124;9.152;2022-10-31T15:15:52;8.73;;;4.85;;
12296;SDS011;6211;49.124;9.152;2022-10-31T15:18:21;8.02;;;5.32;;
12296;SDS011;6211;49.124;9.152;2022-10-31T15:20:50;6.65;;;4.90;;
12296;SDS011;6211;49.124;9.152;2022-10-31T15:23:20;8.25;;;5.18;;